sensor_id;sensor_type;location;lat;lon;timestamp;P1;durP1;ratioP1;P2;durP2;ratioP2
37425;SDS011;23285;50.180;7.036;2022-12-10T00:00:11;14.13;;;10.43;;
37425;SDS011;23285;50.180;7.036;2022-12-10T00:02:57;15.03;;;11.03;;
37425;SDS011;23285;50.180;7.036;2022-12-10T00:05:42;15.27;;;11.53;;
37425;SDS011;23285;50.180;7.036;2022-12-10T00:08:28;12.43;;;11.13;;
37425;SDS011;23285;50.180;7.036;2022-12-10T00:11:14;13.63;;;10.23;;
37425;SDS011;23285;50.180;7.036;2022-12-10T00:14:00;15.73;;;10.50;;
37425;SDS011;23285;50.180;7.036;2022-12-10T00:16:46;13.40;;;10.60;;
37425;SDS011;23285;50.180;7.036;2022-12-10T00:19:31;14.13;;;11.17;;
37425;SDS011;23285;50.180;7.036;2022-12-10T00:22:16;15.07;;;12.27;;
37425;SDS011;23285;50.180;7.036;2022-12-10T00:25:01;17.73;;;12.93;;
37425;SDS011;23285;50.180;7.036;2022-12-10T00:27:47;17.83;;;13.50;;
37425;SDS011;23285;50.180;7.036;2022-12-10T00:30:32;19.50;;;14.77;;
37425;SDS011;23285;50.180;7.036;2022-12-10T00:33:17;52.80;;;31.53;;
37425;SDS011;23285;50.180;7.036;2022-12-10T00:36:03;20.87;;;16.00;;
37425;SDS011;23285;50.180;7.036;2022-12-10T00:38:53;21.27;;;15.47;;
37425;SDS011;23285;50.180;7.036;2022-12-10T00:41:38;20.77;;;15.53;;
37425;SDS011;23285;50.180;7.036;2022-12-10T00:44:24;16.97;;;13.13;;
37425;SDS011;23285;50.180;7.036;2022-12-10T00:47:09;18.07;;;12.80;;
37425;SDS011;23285;50.180;7.036;2022-12-10T00:49:54;15.93;;;13.03;;
37425;SDS011;23285;50.180;7.036;2022-12-10T00:52:39;17.33;;;13.80;;
37425;SDS011;23285;50.180;7.036;2022-12-10T00:55:24;19.50;;;15.20;;
37425;SDS011;23285;50.180;7.036;2022-12-10T00:58:09;21.63;;;16.70;;
37425;SDS011;23285;50.180;7.036;2022-12-10T01:01:05;18.30;;;13.57;;
37425;SDS011;23285;50.180;7.036;2022-12-10T01:03:52;16.30;;;13.50;;
37425;SDS011;23285;50.180;7.036;2022-12-10T01:09:32;17.80;;;13.13;;
37425;SDS011;23285;50.180;7.036;2022-12-10T01:12:17;13.47;;;10.77;;
37425;SDS011;23285;50.180;7.036;2022-12-10T01:15:02;12.53;;;10.93;;
37425;SDS011;23285;50.180;7.036;2022-12-10T01:17:48;15.77;;;11.97;;
37425;SDS011;23285;50.180;7.036;2022-12-10T01:20:34;14.60;;;11.80;;
37425;SDS011;23285;50.180;7.036;2022-12-10T01:23:21;16.03;;;11.87;;
37425;SDS011;23285;50.180;7.036;2022-12-10T01:26:06;15.90;;;12.20;;
37425;SDS011;23285;50.180;7.036;2022-12-10T01:28:53;14.10;;;12.30;;
37425;SDS011;23285;50.180;7.036;2022-12-10T01:31:39;17.00;;;11.90;;
37425;SDS011;23285;50.180;7.036;2022-12-10T01:34:24;15.87;;;12.33;;
37425;SDS011;23285;50.180;7.036;2022-12-10T01:37:13;18.03;;;12.97;;
37425;SDS011;23285;50.180;7.036;2022-12-10T01:39:59;15.20;;;12.43;;
37425;SDS011;23285;50.180;7.036;2022-12-10T01:42:44;15.13;;;12.77;;
37425;SDS011;23285;50.180;7.036;2022-12-10T01:45:32;15.20;;;12.40;;
37425;SDS011;23285;50.180;7.036;2022-12-10T01:48:18;17.27;;;12.87;;
37425;SDS011;23285;50.180;7.036;2022-12-10T01:51:03;15.67;;;12.67;;
37425;SDS011;23285;50.180;7.036;2022-12-10T01:53:49;15.27;;;12.83;;
37425;SDS011;23285;50.180;7.036;2022-12-10T01:56:35;19.63;;;14.40;;
37425;SDS011;23285;50.180;7.036;2022-12-10T01:59:25;14.87;;;11.90;;
37425;SDS011;23285;50.180;7.036;2022-12-10T02:02:17;16.47;;;13.73;;
37425;SDS011;23285;50.180;7.036;2022-12-10T02:05:17;16.77;;;13.87;;
37425;SDS011;23285;50.180;7.036;2022-12-10T02:08:24;17.27;;;13.43;;
37425;SDS011;23285;50.180;7.036;2022-12-10T02:14:07;19.70;;;13.60;;
37425;SDS011;23285;50.180;7.036;2022-12-10T02:17:11;19.13;;;12.60;;
37425;SDS011;23285;50.180;7.036;2022-12-10T02:20:08;17.60;;;13.17;;
37425;SDS011;23285;50.180;7.036;2022-12-10T02:23:09;16.33;;;13.33;;
37425;SDS011;23285;50.180;7.036;2022-12-10T02:32:05;17.37;;;12.37;;
37425;SDS011;23285;50.180;7.036;2022-12-10T02:34:57;13.97;;;12.17;;
37425;SDS011;23285;50.180;7.036;2022-12-10T02:37:51;17.43;;;13.87;;
37425;SDS011;23285;50.180;7.036;2022-12-10T02:40:39;16.13;;;13.70;;
37425;SDS011;23285;50.180;7.036;2022-12-10T02:43:27;15.60;;;12.50;;
37425;SDS011;23285;50.180;7.036;2022-12-10T02:46:14;17.10;;;12.40;;
37425;SDS011;23285;50.180;7.036;2022-12-10T02:49:01;16.77;;;12.77;;
37425;SDS011;23285;50.180;7.036;2022-12-10T02:51:48;16.67;;;12.80;;
37425;SDS011;23285;50.180;7.036;2022-12-10T02:54:34;16.90;;;13.27;;
37425;SDS011;23285;50.180;7.036;2022-12-10T02:57:32;15.77;;;12.97;;
37425;SDS011;23285;50.180;7.036;2022-12-10T03:00:41;15.10;;;12.00;;
37425;SDS011;23285;50.180;7.036;2022-12-10T03:03:43;14.57;;;11.13;;
37425;SDS011;23285;50.180;7.036;2022-12-10T03:06:36;12.90;;;10.97;;
37425;SDS011;23285;50.180;7.036;2022-12-10T03:09:46;13.03;;;10.77;;
37425;SDS011;23285;50.180;7.036;2022-12-10T03:12:36;15.00;;;11.70;;
37425;SDS011;23285;50.180;7.036;2022-12-10T03:15:27;15.50;;;10.87;;
37425;SDS011;23285;50.180;7.036;2022-12-10T03:18:14;12.60;;;10.70;;
37425;SDS011;23285;50.180;7.036;2022-12-10T03:21:04;11.53;;;9.53;;
37425;SDS011;23285;50.180;7.036;2022-12-10T03:23:51;13.43;;;9.90;;
37425;SDS011;23285;50.180;7.036;2022-12-10T03:26:36;15.43;;;11.93;;
37425;SDS011;23285;50.180;7.036;2022-12-10T03:29:25;14.30;;;10.87;;
37425;SDS011;23285;50.180;7.036;2022-12-10T03:32:24;12.30;;;10.10;;
37425;SDS011;23285;50.180;7.036;2022-12-10T03:35:11;10.80;;;9.50;;
37425;SDS011;23285;50.180;7.036;2022-12-10T03:37:57;13.33;;;9.73;;
37425;SDS011;23285;50.180;7.036;2022-12-10T03:40:42;16.20;;;10.70;;
37425;SDS011;23285;50.180;7.036;2022-12-10T03:43:28;12.00;;;9.87;;
37425;SDS011;23285;50.180;7.036;2022-12-10T03:46:12;10.10;;;8.60;;
37425;SDS011;23285;50.180;7.036;2022-12-10T03:48:58;10.60;;;8.83;;
37425;SDS011;23285;50.180;7.036;2022-12-10T03:51:44;12.27;;;8.50;;
37425;SDS011;23285;50.180;7.036;2022-12-10T03:54:29;10.33;;;8.30;;
37425;SDS011;23285;50.180;7.036;2022-12-10T03:57:14;11.13;;;8.67;;
37425;SDS011;23285;50.180;7.036;2022-12-10T03:59:59;12.77;;;9.13;;
37425;SDS011;23285;50.180;7.036;2022-12-10T04:02:45;11.20;;;9.10;;
37425;SDS011;23285;50.180;7.036;2022-12-10T04:05:30;9.40;;;7.80;;
37425;SDS011;23285;50.180;7.036;2022-12-10T04:08:15;10.67;;;8.73;;
37425;SDS011;23285;50.180;7.036;2022-12-10T04:11:09;10.43;;;7.97;;
37425;SDS011;23285;50.180;7.036;2022-12-10T04:13:55;12.40;;;9.37;;
37425;SDS011;23285;50.180;7.036;2022-12-10T04:16:59;12.50;;;9.03;;
37425;SDS011;23285;50.180;7.036;2022-12-10T04:19:44;10.47;;;8.53;;
37425;SDS011;23285;50.180;7.036;2022-12-10T04:22:29;10.83;;;8.83;;
37425;SDS011;23285;50.180;7.036;2022-12-10T04:25:32;11.80;;;9.33;;
37425;SDS011;23285;50.180;7.036;2022-12-10T04:28:37;12.00;;;9.87;;
37425;SDS011;23285;50.180;7.036;2022-12-10T04:31:22;10.60;;;8.93;;
37425;SDS011;23285;50.180;7.036;2022-12-10T04:34:07;10.67;;;8.67;;
37425;SDS011;23285;50.180;7.036;2022-12-10T04:36:52;12.17;;;9.27;;
37425;SDS011;23285;50.180;7.036;2022-12-10T04:39:37;11.13;;;8.77;;
37425;SDS011;23285;50.180;7.036;2022-12-10T04:42:22;13.73;;;10.03;;
37425;SDS011;23285;50.180;7.036;2022-12-10T04:45:08;12.53;;;9.03;;
37425;SDS011;23285;50.180;7.036;2022-12-10T04:47:53;12.67;;;8.60;;
37425;SDS011;23285;50.180;7.036;2022-12-10T04:50:38;13.80;;;10.97;;
37425;SDS011;23285;50.180;7.036;2022-12-10T04:53:23;11.83;;;9.07;;
37425;SDS011;23285;50.180;7.036;2022-12-10T04:56:08;15.87;;;11.00;;
37425;SDS011;23285;50.180;7.036;2022-12-10T04:58:54;15.43;;;11.03;;
37425;SDS011;23285;50.180;7.036;2022-12-10T05:01:40;13.33;;;9.93;;
37425;SDS011;23285;50.180;7.036;2022-12-10T05:04:25;14.50;;;10.23;;
37425;SDS011;23285;50.180;7.036;2022-12-10T05:07:10;13.83;;;10.97;;
37425;SDS011;23285;50.180;7.036;2022-12-10T05:09:55;12.73;;;10.13;;
37425;SDS011;23285;50.180;7.036;2022-12-10T05:12:40;15.33;;;10.50;;
37425;SDS011;23285;50.180;7.036;2022-12-10T05:15:25;15.03;;;12.37;;
37425;SDS011;23285;50.180;7.036;2022-12-10T05:18:10;12.70;;;10.03;;
37425;SDS011;23285;50.180;7.036;2022-12-10T05:20:59;13.67;;;10.77;;
37425;SDS011;23285;50.180;7.036;2022-12-10T05:23:46;14.87;;;10.13;;
37425;SDS011;23285;50.180;7.036;2022-12-10T05:26:34;12.90;;;9.73;;
37425;SDS011;23285;50.180;7.036;2022-12-10T05:29:19;15.17;;;10.90;;
37425;SDS011;23285;50.180;7.036;2022-12-10T05:32:04;15.87;;;10.27;;
37425;SDS011;23285;50.180;7.036;2022-12-10T05:34:49;15.67;;;10.33;;
37425;SDS011;23285;50.180;7.036;2022-12-10T05:37:35;14.33;;;10.37;;
37425;SDS011;23285;50.180;7.036;2022-12-10T05:40:20;13.23;;;10.90;;
37425;SDS011;23285;50.180;7.036;2022-12-10T05:43:05;15.57;;;10.40;;
37425;SDS011;23285;50.180;7.036;2022-12-10T05:45:50;14.53;;;9.73;;
37425;SDS011;23285;50.180;7.036;2022-12-10T05:48:35;15.37;;;11.23;;
37425;SDS011;23285;50.180;7.036;2022-12-10T05:51:21;14.13;;;10.60;;
37425;SDS011;23285;50.180;7.036;2022-12-10T05:54:09;11.70;;;10.00;;
37425;SDS011;23285;50.180;7.036;2022-12-10T05:56:53;15.57;;;10.70;;
37425;SDS011;23285;50.180;7.036;2022-12-10T05:59:39;13.43;;;10.73;;
37425;SDS011;23285;50.180;7.036;2022-12-10T06:02:24;15.93;;;11.10;;
37425;SDS011;23285;50.180;7.036;2022-12-10T06:05:09;19.63;;;11.03;;
37425;SDS011;23285;50.180;7.036;2022-12-10T06:07:54;18.13;;;11.40;;
37425;SDS011;23285;50.180;7.036;2022-12-10T06:10:39;13.77;;;10.97;;
37425;SDS011;23285;50.180;7.036;2022-12-10T06:13:24;14.90;;;11.10;;
37425;SDS011;23285;50.180;7.036;2022-12-10T06:16:11;14.37;;;11.07;;
37425;SDS011;23285;50.180;7.036;2022-12-10T06:18:57;17.03;;;11.53;;
37425;SDS011;23285;50.180;7.036;2022-12-10T06:21:42;15.13;;;10.73;;
37425;SDS011;23285;50.180;7.036;2022-12-10T06:24:27;13.27;;;10.13;;
37425;SDS011;23285;50.180;7.036;2022-12-10T06:27:14;12.97;;;10.43;;
37425;SDS011;23285;50.180;7.036;2022-12-10T06:29:59;13.83;;;10.97;;
37425;SDS011;23285;50.180;7.036;2022-12-10T06:32:43;15.50;;;10.83;;
37425;SDS011;23285;50.180;7.036;2022-12-10T06:35:28;12.73;;;9.37;;
37425;SDS011;23285;50.180;7.036;2022-12-10T06:38:13;12.90;;;9.80;;
37425;SDS011;23285;50.180;7.036;2022-12-10T06:40:58;12.67;;;9.60;;
37425;SDS011;23285;50.180;7.036;2022-12-10T06:43:45;13.33;;;9.87;;
37425;SDS011;23285;50.180;7.036;2022-12-10T06:46:30;14.83;;;10.27;;
37425;SDS011;23285;50.180;7.036;2022-12-10T06:49:15;14.03;;;10.10;;
37425;SDS011;23285;50.180;7.036;2022-12-10T06:52:00;14.80;;;9.53;;
37425;SDS011;23285;50.180;7.036;2022-12-10T06:54:48;13.63;;;9.97;;
37425;SDS011;23285;50.180;7.036;2022-12-10T06:57:33;12.00;;;9.40;;
37425;SDS011;23285;50.180;7.036;2022-12-10T07:00:18;12.77;;;9.67;;
37425;SDS011;23285;50.180;7.036;2022-12-10T07:03:05;15.73;;;10.20;;
37425;SDS011;23285;50.180;7.036;2022-12-10T07:05:50;15.53;;;10.13;;
37425;SDS011;23285;50.180;7.036;2022-12-10T07:08:35;12.80;;;10.13;;
37425;SDS011;23285;50.180;7.036;2022-12-10T07:11:22;15.17;;;9.90;;
37425;SDS011;23285;50.180;7.036;2022-12-10T07:14:11;14.80;;;10.50;;
37425;SDS011;23285;50.180;7.036;2022-12-10T07:16:59;12.33;;;9.50;;
37425;SDS011;23285;50.180;7.036;2022-12-10T07:19:46;14.90;;;10.17;;
37425;SDS011;23285;50.180;7.036;2022-12-10T07:22:32;13.47;;;9.73;;
37425;SDS011;23285;50.180;7.036;2022-12-10T07:25:17;13.00;;;10.17;;
37425;SDS011;23285;50.180;7.036;2022-12-10T07:28:02;14.23;;;10.10;;
37425;SDS011;23285;50.180;7.036;2022-12-10T07:30:47;14.50;;;10.37;;
37425;SDS011;23285;50.180;7.036;2022-12-10T07:33:33;12.83;;;9.57;;
37425;SDS011;23285;50.180;7.036;2022-12-10T07:36:19;11.33;;;8.70;;
37425;SDS011;23285;50.180;7.036;2022-12-10T07:39:05;17.90;;;11.60;;
37425;SDS011;23285;50.180;7.036;2022-12-10T07:41:52;12.17;;;9.47;;
37425;SDS011;23285;50.180;7.036;2022-12-10T07:44:38;12.63;;;9.77;;
37425;SDS011;23285;50.180;7.036;2022-12-10T07:47:24;14.20;;;10.83;;
37425;SDS011;23285;50.180;7.036;2022-12-10T07:50:09;15.00;;;11.07;;
37425;SDS011;23285;50.180;7.036;2022-12-10T07:52:54;13.50;;;9.97;;
37425;SDS011;23285;50.180;7.036;2022-12-10T07:55:39;12.43;;;9.60;;
37425;SDS011;23285;50.180;7.036;2022-12-10T07:58:24;13.73;;;10.47;;
37425;SDS011;23285;50.180;7.036;2022-12-10T08:01:10;13.13;;;9.67;;
37425;SDS011;23285;50.180;7.036;2022-12-10T08:03:57;12.63;;;10.20;;
37425;SDS011;23285;50.180;7.036;2022-12-10T08:06:42;14.00;;;11.53;;
37425;SDS011;23285;50.180;7.036;2022-12-10T08:09:27;14.57;;;11.93;;
37425;SDS011;23285;50.180;7.036;2022-12-10T08:12:12;13.93;;;10.17;;
37425;SDS011;23285;50.180;7.036;2022-12-10T08:14:57;13.60;;;10.57;;
37425;SDS011;23285;50.180;7.036;2022-12-10T08:17:42;18.77;;;12.43;;
37425;SDS011;23285;50.180;7.036;2022-12-10T08:20:28;23.10;;;15.37;;
37425;SDS011;23285;50.180;7.036;2022-12-10T08:23:13;13.93;;;11.60;;
37425;SDS011;23285;50.180;7.036;2022-12-10T08:25:58;13.47;;;10.03;;
37425;SDS011;23285;50.180;7.036;2022-12-10T08:28:47;16.13;;;11.27;;
37425;SDS011;23285;50.180;7.036;2022-12-10T08:31:33;22.57;;;11.97;;
37425;SDS011;23285;50.180;7.036;2022-12-10T08:34:18;17.17;;;10.53;;
37425;SDS011;23285;50.180;7.036;2022-12-10T08:37:04;20.10;;;10.83;;
37425;SDS011;23285;50.180;7.036;2022-12-10T08:39:49;18.63;;;9.73;;
37425;SDS011;23285;50.180;7.036;2022-12-10T08:42:34;18.40;;;10.07;;
37425;SDS011;23285;50.180;7.036;2022-12-10T08:45:19;23.00;;;10.67;;
37425;SDS011;23285;50.180;7.036;2022-12-10T08:48:04;18.25;;;10.82;;
37425;SDS011;23285;50.180;7.036;2022-12-10T08:50:49;16.63;;;11.37;;
37425;SDS011;23285;50.180;7.036;2022-12-10T08:53:34;36.17;;;13.20;;
37425;SDS011;23285;50.180;7.036;2022-12-10T08:56:19;23.20;;;11.37;;
37425;SDS011;23285;50.180;7.036;2022-12-10T08:59:04;14.60;;;9.43;;
37425;SDS011;23285;50.180;7.036;2022-12-10T09:01:51;13.63;;;9.90;;
37425;SDS011;23285;50.180;7.036;2022-12-10T09:04:36;13.33;;;9.10;;
37425;SDS011;23285;50.180;7.036;2022-12-10T09:07:25;15.20;;;10.07;;
37425;SDS011;23285;50.180;7.036;2022-12-10T09:10:11;11.93;;;9.67;;
37425;SDS011;23285;50.180;7.036;2022-12-10T09:12:56;14.37;;;10.10;;
37425;SDS011;23285;50.180;7.036;2022-12-10T09:15:48;11.00;;;9.30;;
37425;SDS011;23285;50.180;7.036;2022-12-10T09:18:34;23.50;;;10.97;;
37425;SDS011;23285;50.180;7.036;2022-12-10T09:21:19;258.93;;;36.47;;
37425;SDS011;23285;50.180;7.036;2022-12-10T09:24:05;28.83;;;10.00;;
37425;SDS011;23285;50.180;7.036;2022-12-10T09:26:50;12.53;;;9.00;;
37425;SDS011;23285;50.180;7.036;2022-12-10T09:29:35;11.03;;;8.80;;
37425;SDS011;23285;50.180;7.036;2022-12-10T09:32:21;11.47;;;8.57;;
37425;SDS011;23285;50.180;7.036;2022-12-10T09:35:06;27.73;;;10.23;;
37425;SDS011;23285;50.180;7.036;2022-12-10T09:37:51;12.87;;;8.93;;
37425;SDS011;23285;50.180;7.036;2022-12-10T09:41:20;15.33;;;10.20;;
37425;SDS011;23285;50.180;7.036;2022-12-10T09:43:48;14.07;;;10.13;;
37425;SDS011;23285;50.180;7.036;2022-12-10T09:46:53;16.47;;;13.13;;
37425;SDS011;23285;50.180;7.036;2022-12-10T09:52:39;19.23;;;12.47;;
37425;SDS011;23285;50.180;7.036;2022-12-10T09:55:30;23.37;;;16.63;;
37425;SDS011;23285;50.180;7.036;2022-12-10T09:58:22;21.63;;;14.90;;
37425;SDS011;23285;50.180;7.036;2022-12-10T10:01:09;20.07;;;12.93;;
37425;SDS011;23285;50.180;7.036;2022-12-10T10:03:59;19.17;;;13.27;;
37425;SDS011;23285;50.180;7.036;2022-12-10T10:06:44;17.07;;;12.47;;
37425;SDS011;23285;50.180;7.036;2022-12-10T10:09:29;14.60;;;10.50;;
37425;SDS011;23285;50.180;7.036;2022-12-10T10:12:17;12.67;;;9.57;;
37425;SDS011;23285;50.180;7.036;2022-12-10T10:15:16;15.97;;;10.63;;
37425;SDS011;23285;50.180;7.036;2022-12-10T10:21:00;16.33;;;11.20;;
37425;SDS011;23285;50.180;7.036;2022-12-10T10:23:46;16.10;;;10.73;;
37425;SDS011;23285;50.180;7.036;2022-12-10T10:26:32;15.50;;;10.07;;
37425;SDS011;23285;50.180;7.036;2022-12-10T10:29:18;13.23;;;9.43;;
37425;SDS011;23285;50.180;7.036;2022-12-10T10:32:13;11.80;;;9.93;;
37425;SDS011;23285;50.180;7.036;2022-12-10T10:35:01;13.63;;;10.27;;
37425;SDS011;23285;50.180;7.036;2022-12-10T10:37:47;13.20;;;10.10;;
37425;SDS011;23285;50.180;7.036;2022-12-10T10:40:38;13.67;;;10.57;;
37425;SDS011;23285;50.180;7.036;2022-12-10T10:43:28;17.37;;;11.50;;
37425;SDS011;23285;50.180;7.036;2022-12-10T10:46:21;13.00;;;10.17;;
37425;SDS011;23285;50.180;7.036;2022-12-10T10:49:14;15.77;;;10.50;;
37425;SDS011;23285;50.180;7.036;2022-12-10T10:52:06;12.07;;;10.03;;
37425;SDS011;23285;50.180;7.036;2022-12-10T10:54:59;13.60;;;10.47;;
37425;SDS011;23285;50.180;7.036;2022-12-10T10:57:44;14.17;;;9.77;;
37425;SDS011;23285;50.180;7.036;2022-12-10T11:00:29;17.03;;;11.07;;
37425;SDS011;23285;50.180;7.036;2022-12-10T11:03:14;16.00;;;11.27;;
37425;SDS011;23285;50.180;7.036;2022-12-10T11:05:59;13.97;;;10.63;;
37425;SDS011;23285;50.180;7.036;2022-12-10T11:08:46;21.77;;;11.17;;
37425;SDS011;23285;50.180;7.036;2022-12-10T11:11:33;14.00;;;11.50;;
37425;SDS011;23285;50.180;7.036;2022-12-10T11:14:27;154.50;;;24.80;;
37425;SDS011;23285;50.180;7.036;2022-12-10T11:17:19;24.80;;;11.00;;
37425;SDS011;23285;50.180;7.036;2022-12-10T11:23:09;18.40;;;10.50;;
37425;SDS011;23285;50.180;7.036;2022-12-10T11:26:21;15.50;;;11.23;;
37425;SDS011;23285;50.180;7.036;2022-12-10T11:29:36;14.47;;;9.53;;
37425;SDS011;23285;50.180;7.036;2022-12-10T11:32:32;13.13;;;9.33;;
37425;SDS011;23285;50.180;7.036;2022-12-10T11:47:44;16.87;;;11.43;;
37425;SDS011;23285;50.180;7.036;2022-12-10T11:50:56;13.90;;;11.07;;
37425;SDS011;23285;50.180;7.036;2022-12-10T12:00:16;22.93;;;13.43;;
37425;SDS011;23285;50.180;7.036;2022-12-10T12:06:10;18.43;;;13.93;;
37425;SDS011;23285;50.180;7.036;2022-12-10T12:12:00;16.57;;;11.70;;
37425;SDS011;23285;50.180;7.036;2022-12-10T12:15:01;13.73;;;10.50;;
37425;SDS011;23285;50.180;7.036;2022-12-10T12:20:55;14.87;;;10.40;;
37425;SDS011;23285;50.180;7.036;2022-12-10T12:23:55;15.23;;;10.90;;
37425;SDS011;23285;50.180;7.036;2022-12-10T12:26:42;12.83;;;10.13;;
37425;SDS011;23285;50.180;7.036;2022-12-10T12:29:30;14.83;;;9.87;;
37425;SDS011;23285;50.180;7.036;2022-12-10T12:32:21;13.63;;;10.60;;
37425;SDS011;23285;50.180;7.036;2022-12-10T12:38:21;13.33;;;10.97;;
37425;SDS011;23285;50.180;7.036;2022-12-10T12:41:16;14.33;;;10.63;;
37425;SDS011;23285;50.180;7.036;2022-12-10T12:44:12;12.33;;;10.13;;
37425;SDS011;23285;50.180;7.036;2022-12-10T12:50:19;14.77;;;10.23;;
37425;SDS011;23285;50.180;7.036;2022-12-10T12:53:11;12.77;;;9.17;;
37425;SDS011;23285;50.180;7.036;2022-12-10T12:58:53;12.77;;;9.67;;
37425;SDS011;23285;50.180;7.036;2022-12-10T13:05:32;10.67;;;8.57;;
37425;SDS011;23285;50.180;7.036;2022-12-10T13:17:07;10.60;;;8.60;;
37425;SDS011;23285;50.180;7.036;2022-12-10T13:19:53;11.10;;;8.63;;
37425;SDS011;23285;50.180;7.036;2022-12-10T13:26:21;11.73;;;8.40;;
37425;SDS011;23285;50.180;7.036;2022-12-10T13:32:03;12.40;;;9.03;;
37425;SDS011;23285;50.180;7.036;2022-12-10T13:40:41;12.73;;;9.10;;
37425;SDS011;23285;50.180;7.036;2022-12-10T13:44:25;10.00;;;8.50;;
37425;SDS011;23285;50.180;7.036;2022-12-10T13:47:27;9.57;;;7.93;;
37425;SDS011;23285;50.180;7.036;2022-12-10T13:53:34;10.50;;;8.17;;
37425;SDS011;23285;50.180;7.036;2022-12-10T13:56:29;10.80;;;8.50;;
37425;SDS011;23285;50.180;7.036;2022-12-10T14:05:22;10.40;;;8.63;;
37425;SDS011;23285;50.180;7.036;2022-12-10T14:08:25;10.70;;;8.20;;
37425;SDS011;23285;50.180;7.036;2022-12-10T14:11:15;10.33;;;8.70;;
37425;SDS011;23285;50.180;7.036;2022-12-10T14:14:06;12.37;;;8.90;;
37425;SDS011;23285;50.180;7.036;2022-12-10T14:17:17;10.77;;;8.77;;
37425;SDS011;23285;50.180;7.036;2022-12-10T14:20:06;11.57;;;8.77;;
37425;SDS011;23285;50.180;7.036;2022-12-10T14:22:56;12.23;;;8.97;;
37425;SDS011;23285;50.180;7.036;2022-12-10T14:28:53;16.47;;;12.20;;
37425;SDS011;23285;50.180;7.036;2022-12-10T14:31:44;18.40;;;13.50;;
37425;SDS011;23285;50.180;7.036;2022-12-10T14:34:34;20.07;;;13.90;;
37425;SDS011;23285;50.180;7.036;2022-12-10T14:37:22;13.93;;;11.57;;
37425;SDS011;23285;50.180;7.036;2022-12-10T14:40:09;13.53;;;10.40;;
37425;SDS011;23285;50.180;7.036;2022-12-10T14:43:05;12.73;;;10.57;;
37425;SDS011;23285;50.180;7.036;2022-12-10T14:46:03;14.13;;;12.63;;
37425;SDS011;23285;50.180;7.036;2022-12-10T14:48:50;15.07;;;11.10;;
37425;SDS011;23285;50.180;7.036;2022-12-10T14:51:37;13.87;;;11.03;;
37425;SDS011;23285;50.180;7.036;2022-12-10T14:54:43;14.47;;;12.07;;
37425;SDS011;23285;50.180;7.036;2022-12-10T14:57:29;17.40;;;14.33;;
37425;SDS011;23285;50.180;7.036;2022-12-10T15:00:17;14.50;;;12.67;;
37425;SDS011;23285;50.180;7.036;2022-12-10T15:03:10;11.33;;;10.13;;
37425;SDS011;23285;50.180;7.036;2022-12-10T15:05:59;11.63;;;9.93;;
37425;SDS011;23285;50.180;7.036;2022-12-10T15:08:47;10.30;;;9.13;;
37425;SDS011;23285;50.180;7.036;2022-12-10T15:11:33;12.37;;;9.83;;
37425;SDS011;23285;50.180;7.036;2022-12-10T15:14:18;11.93;;;10.27;;
37425;SDS011;23285;50.180;7.036;2022-12-10T15:17:31;11.33;;;9.63;;
37425;SDS011;23285;50.180;7.036;2022-12-10T15:20:25;11.50;;;10.30;;
37425;SDS011;23285;50.180;7.036;2022-12-10T15:23:34;12.53;;;11.23;;
37425;SDS011;23285;50.180;7.036;2022-12-10T15:26:21;15.33;;;12.17;;
37425;SDS011;23285;50.180;7.036;2022-12-10T15:32:13;14.23;;;11.57;;
37425;SDS011;23285;50.180;7.036;2022-12-10T15:35:00;17.47;;;13.70;;
37425;SDS011;23285;50.180;7.036;2022-12-10T15:37:49;19.70;;;15.33;;
37425;SDS011;23285;50.180;7.036;2022-12-10T15:40:37;20.50;;;15.07;;
37425;SDS011;23285;50.180;7.036;2022-12-10T15:46:15;30.97;;;20.47;;
37425;SDS011;23285;50.180;7.036;2022-12-10T15:49:01;29.63;;;21.17;;
37425;SDS011;23285;50.180;7.036;2022-12-10T15:51:46;30.87;;;21.53;;
37425;SDS011;23285;50.180;7.036;2022-12-10T15:54:33;32.03;;;21.80;;
37425;SDS011;23285;50.180;7.036;2022-12-10T15:57:28;34.33;;;22.80;;
37425;SDS011;23285;50.180;7.036;2022-12-10T16:00:18;37.43;;;24.13;;
37425;SDS011;23285;50.180;7.036;2022-12-10T16:03:05;34.67;;;23.20;;
37425;SDS011;23285;50.180;7.036;2022-12-10T16:05:56;35.33;;;24.07;;
37425;SDS011;23285;50.180;7.036;2022-12-10T16:08:42;37.77;;;24.03;;
37425;SDS011;23285;50.180;7.036;2022-12-10T16:11:27;34.10;;;23.97;;
37425;SDS011;23285;50.180;7.036;2022-12-10T16:14:12;31.00;;;21.07;;
37425;SDS011;23285;50.180;7.036;2022-12-10T16:16:58;29.07;;;20.13;;
37425;SDS011;23285;50.180;7.036;2022-12-10T16:19:43;33.50;;;26.83;;
37425;SDS011;23285;50.180;7.036;2022-12-10T16:22:28;31.83;;;22.83;;
37425;SDS011;23285;50.180;7.036;2022-12-10T16:25:13;29.53;;;23.23;;
37425;SDS011;23285;50.180;7.036;2022-12-10T16:27:59;29.10;;;21.73;;
37425;SDS011;23285;50.180;7.036;2022-12-10T16:30:47;37.70;;;23.47;;
37425;SDS011;23285;50.180;7.036;2022-12-10T16:33:33;31.63;;;23.37;;
37425;SDS011;23285;50.180;7.036;2022-12-10T16:36:18;31.37;;;23.57;;
37425;SDS011;23285;50.180;7.036;2022-12-10T16:39:03;41.37;;;27.07;;
37425;SDS011;23285;50.180;7.036;2022-12-10T16:41:53;37.97;;;25.90;;
37425;SDS011;23285;50.180;7.036;2022-12-10T16:44:38;39.77;;;26.47;;
37425;SDS011;23285;50.180;7.036;2022-12-10T16:47:23;44.10;;;30.53;;
37425;SDS011;23285;50.180;7.036;2022-12-10T16:50:10;37.67;;;27.17;;
37425;SDS011;23285;50.180;7.036;2022-12-10T16:52:56;47.03;;;31.70;;
37425;SDS011;23285;50.180;7.036;2022-12-10T16:55:42;41.60;;;28.17;;
37425;SDS011;23285;50.180;7.036;2022-12-10T16:58:27;42.70;;;29.77;;
37425;SDS011;23285;50.180;7.036;2022-12-10T17:01:17;31.30;;;21.37;;
37425;SDS011;23285;50.180;7.036;2022-12-10T17:04:17;29.70;;;20.50;;
37425;SDS011;23285;50.180;7.036;2022-12-10T17:07:02;25.93;;;19.63;;
37425;SDS011;23285;50.180;7.036;2022-12-10T17:09:47;27.37;;;18.43;;
37425;SDS011;23285;50.180;7.036;2022-12-10T17:12:35;23.03;;;18.03;;
37425;SDS011;23285;50.180;7.036;2022-12-10T17:15:20;25.67;;;18.20;;
37425;SDS011;23285;50.180;7.036;2022-12-10T17:18:05;24.90;;;18.07;;
37425;SDS011;23285;50.180;7.036;2022-12-10T17:20:52;21.37;;;16.13;;
37425;SDS011;23285;50.180;7.036;2022-12-10T17:23:41;22.37;;;16.13;;
37425;SDS011;23285;50.180;7.036;2022-12-10T17:26:27;23.07;;;15.87;;
37425;SDS011;23285;50.180;7.036;2022-12-10T17:29:15;18.93;;;14.07;;
37425;SDS011;23285;50.180;7.036;2022-12-10T17:32:02;17.90;;;14.23;;
37425;SDS011;23285;50.180;7.036;2022-12-10T17:34:51;20.50;;;14.47;;
37425;SDS011;23285;50.180;7.036;2022-12-10T17:37:36;18.73;;;14.07;;
37425;SDS011;23285;50.180;7.036;2022-12-10T17:40:22;18.10;;;14.00;;
37425;SDS011;23285;50.180;7.036;2022-12-10T17:43:08;17.87;;;13.17;;
37425;SDS011;23285;50.180;7.036;2022-12-10T17:45:54;18.00;;;12.67;;
37425;SDS011;23285;50.180;7.036;2022-12-10T17:48:43;17.73;;;13.57;;
37425;SDS011;23285;50.180;7.036;2022-12-10T17:51:29;19.53;;;13.23;;
37425;SDS011;23285;50.180;7.036;2022-12-10T17:54:14;22.00;;;16.40;;
37425;SDS011;23285;50.180;7.036;2022-12-10T17:56:59;19.97;;;14.97;;
37425;SDS011;23285;50.180;7.036;2022-12-10T17:59:44;20.70;;;16.23;;
37425;SDS011;23285;50.180;7.036;2022-12-10T18:02:29;25.07;;;18.33;;
37425;SDS011;23285;50.180;7.036;2022-12-10T18:05:15;28.60;;;19.83;;
37425;SDS011;23285;50.180;7.036;2022-12-10T18:08:01;25.00;;;18.43;;
37425;SDS011;23285;50.180;7.036;2022-12-10T18:10:46;22.53;;;16.10;;